sensor_id;sensor_type;location;lat;lon;timestamp;pressure;altitude;pressure_sealevel;temperature;humidity
12868;BME280;33517;49.866;8.320;2023-05-12T00:02:36;100241.00;;;13.17;100.00
12868;BME280;33517;49.866;8.320;2023-05-12T00:05:27;100241.78;;;13.17;100.00
12868;BME280;33517;49.866;8.320;2023-05-12T00:08:19;100238.34;;;13.17;100.00
12868;BME280;33517;49.866;8.320;2023-05-12T00:11:11;100246.28;;;13.17;100.00
12868;BME280;33517;49.866;8.320;2023-05-12T00:14:05;100245.00;;;13.13;100.00
12868;BME280;33517;49.866;8.320;2023-05-12T00:16:57;100232.16;;;13.10;100.00
12868;BME280;33517;49.866;8.320;2023-05-12T00:19:49;100244.53;;;13.09;100.00
12868;BME280;33517;49.866;8.320;2023-05-12T00:22:41;100237.44;;;13.10;100.00
12868;BME280;33517;49.866;8.320;2023-05-12T00:25:33;100236.44;;;13.11;100.00
12868;BME280;33517;49.866;8.320;2023-05-12T00:28:25;100233.16;;;13.09;100.00
12868;BME280;33517;49.866;8.320;2023-05-12T00:31:18;100234.97;;;13.08;100.00
12868;BME280;33517;49.866;8.320;2023-05-12T00:34:10;100234.16;;;13.08;100.00
12868;BME280;33517;49.866;8.320;2023-05-12T00:37:02;100228.53;;;13.11;100.00
12868;BME280;33517;49.866;8.320;2023-05-12T00:39:53;100231.16;;;13.11;100.00
12868;BME280;33517;49.866;8.320;2023-05-12T00:42:45;100234.59;;;13.11;100.00
12868;BME280;33517;49.866;8.320;2023-05-12T00:45:37;100232.59;;;13.13;100.00
12868;BME280;33517;49.866;8.320;2023-05-12T00:48:31;100234.44;;;13.13;100.00
12868;BME280;33517;49.866;8.320;2023-05-12T00:51:24;100231.59;;;13.14;100.00
12868;BME280;33517;49.866;8.320;2023-05-12T00:54:16;100231.59;;;13.14;100.00
12868;BME280;33517;49.866;8.320;2023-05-12T00:57:08;100225.31;;;13.15;100.00
12868;BME280;33517;49.866;8.320;2023-05-12T01:00:00;100227.78;;;13.17;100.00
12868;BME280;33517;49.866;8.320;2023-05-12T01:02:54;100229.59;;;13.16;100.00
12868;BME280;33517;49.866;8.320;2023-05-12T01:05:52;100220.66;;;13.17;100.00
12868;BME280;33517;49.866;8.320;2023-05-12T01:08:46;100231.66;;;13.21;100.00
12868;BME280;33517;49.866;8.320;2023-05-12T01:11:38;100227.84;;;13.23;100.00
12868;BME280;33517;49.866;8.320;2023-05-12T01:14:30;100224.00;;;13.26;100.00
12868;BME280;33517;49.866;8.320;2023-05-12T01:17:26;100225.84;;;13.25;100.00
12868;BME280;33517;49.866;8.320;2023-05-12T01:20:21;100236.00;;;13.28;100.00
12868;BME280;33517;49.866;8.320;2023-05-12T01:23:18;100226.53;;;13.34;100.00
12868;BME280;33517;49.866;8.320;2023-05-12T01:26:11;100221.25;;;13.34;100.00
12868;BME280;33517;49.866;8.320;2023-05-12T01:29:03;100227.19;;;13.36;100.00
12868;BME280;33517;49.866;8.320;2023-05-12T01:31:56;100217.22;;;13.38;100.00
12868;BME280;33517;49.866;8.320;2023-05-12T01:34:48;100215.41;;;13.38;100.00
12868;BME280;33517;49.866;8.320;2023-05-12T01:37:40;100213.78;;;13.37;100.00
12868;BME280;33517;49.866;8.320;2023-05-12T01:40:32;100218.47;;;13.42;100.00
12868;BME280;33517;49.866;8.320;2023-05-12T01:43:25;100221.13;;;13.42;100.00
12868;BME280;33517;49.866;8.320;2023-05-12T01:46:17;100220.13;;;13.43;100.00
12868;BME280;33517;49.866;8.320;2023-05-12T01:49:09;100221.31;;;13.40;100.00
12868;BME280;33517;49.866;8.320;2023-05-12T01:52:00;100238.19;;;13.39;100.00
12868;BME280;33517;49.866;8.320;2023-05-12T01:54:52;100224.41;;;13.44;100.00
12868;BME280;33517;49.866;8.320;2023-05-12T01:57:44;100227.47;;;13.47;100.00
12868;BME280;33517;49.866;8.320;2023-05-12T02:00:37;100227.31;;;13.49;100.00
12868;BME280;33517;49.866;8.320;2023-05-12T02:03:29;100230.75;;;13.49;100.00
12868;BME280;33517;49.866;8.320;2023-05-12T02:06:21;100229.03;;;13.42;100.00
12868;BME280;33517;49.866;8.320;2023-05-12T02:09:13;100234.28;;;13.35;100.00
12868;BME280;33517;49.866;8.320;2023-05-12T02:12:05;100229.88;;;13.42;100.00
12868;BME280;33517;49.866;8.320;2023-05-12T02:14:57;100234.81;;;13.45;100.00
12868;BME280;33517;49.866;8.320;2023-05-12T02:17:50;100229.31;;;13.47;100.00
12868;BME280;33517;49.866;8.320;2023-05-12T02:20:43;100228.31;;;13.48;100.00
12868;BME280;33517;49.866;8.320;2023-05-12T02:23:35;100228.69;;;13.45;100.00
12868;BME280;33517;49.866;8.320;2023-05-12T02:26:27;100236.44;;;13.46;100.00
12868;BME280;33517;49.866;8.320;2023-05-12T02:29:19;100236.66;;;13.51;100.00
12868;BME280;33517;49.866;8.320;2023-05-12T02:32:11;100235.25;;;13.49;100.00
12868;BME280;33517;49.866;8.320;2023-05-12T02:35:05;100236.13;;;13.56;100.00
12868;BME280;33517;49.866;8.320;2023-05-12T02:37:57;100236.00;;;13.64;100.00
12868;BME280;33517;49.866;8.320;2023-05-12T02:40:49;100239.06;;;13.67;99.68
12868;BME280;33517;49.866;8.320;2023-05-12T02:43:41;100235.16;;;13.63;100.00
12868;BME280;33517;49.866;8.320;2023-05-12T02:46:33;100232.84;;;13.54;100.00
12868;BME280;33517;49.866;8.320;2023-05-12T02:49:25;100234.31;;;13.56;100.00
12868;BME280;33517;49.866;8.320;2023-05-12T02:52:18;100240.84;;;13.60;99.93
12868;BME280;33517;49.866;8.320;2023-05-12T02:55:11;100239.47;;;13.64;99.60
12868;BME280;33517;49.866;8.320;2023-05-12T02:58:03;100238.25;;;13.67;99.78
12868;BME280;33517;49.866;8.320;2023-05-12T03:00:55;100237.06;;;13.69;100.00
12868;BME280;33517;49.866;8.320;2023-05-12T03:03:47;100241.16;;;13.72;100.00
12868;BME280;33517;49.866;8.320;2023-05-12T03:06:38;100243.63;;;13.73;99.35
12868;BME280;33517;49.866;8.320;2023-05-12T03:09:32;100238.97;;;13.75;99.99
12868;BME280;33517;49.866;8.320;2023-05-12T03:12:24;100246.06;;;13.75;100.00
12868;BME280;33517;49.866;8.320;2023-05-12T03:15:15;100233.66;;;13.75;99.53
12868;BME280;33517;49.866;8.320;2023-05-12T03:18:07;100241.00;;;13.80;99.98
12868;BME280;33517;49.866;8.320;2023-05-12T03:20:59;100238.38;;;13.80;98.63
12868;BME280;33517;49.866;8.320;2023-05-12T03:23:51;100236.31;;;13.75;99.42
12868;BME280;33517;49.866;8.320;2023-05-12T03:26:44;100239.78;;;13.76;99.55
12868;BME280;33517;49.866;8.320;2023-05-12T03:29:36;100236.75;;;13.79;99.04
12868;BME280;33517;49.866;8.320;2023-05-12T03:32:28;100244.06;;;13.77;99.96
12868;BME280;33517;49.866;8.320;2023-05-12T03:35:20;100248.50;;;13.76;99.52
12868;BME280;33517;49.866;8.320;2023-05-12T03:38:11;100243.03;;;13.78;99.34
12868;BME280;33517;49.866;8.320;2023-05-12T03:41:04;100237.38;;;13.81;98.94
12868;BME280;33517;49.866;8.320;2023-05-12T03:43:57;100244.91;;;13.84;99.59
12868;BME280;33517;49.866;8.320;2023-05-12T03:46:49;100240.25;;;13.86;99.75
12868;BME280;33517;49.866;8.320;2023-05-12T03:49:41;100251.47;;;13.88;99.23
12868;BME280;33517;49.866;8.320;2023-05-12T03:52:33;100241.28;;;13.85;99.33
12868;BME280;33517;49.866;8.320;2023-05-12T03:55:27;100241.47;;;13.83;99.54
12868;BME280;33517;49.866;8.320;2023-05-12T03:58:21;100247.56;;;13.84;98.90
12868;BME280;33517;49.866;8.320;2023-05-12T04:01:15;100239.19;;;13.80;98.48
12868;BME280;33517;49.866;8.320;2023-05-12T04:04:07;100242.34;;;13.69;99.74
12868;BME280;33517;49.866;8.320;2023-05-12T04:06:59;100252.09;;;13.69;100.00
12868;BME280;33517;49.866;8.320;2023-05-12T04:09:51;100244.19;;;13.69;100.00
12868;BME280;33517;49.866;8.320;2023-05-12T04:12:43;100245.13;;;13.61;99.79
12868;BME280;33517;49.866;8.320;2023-05-12T04:15:34;100251.91;;;13.49;100.00
12868;BME280;33517;49.866;8.320;2023-05-12T04:18:28;100246.75;;;13.41;100.00
12868;BME280;33517;49.866;8.320;2023-05-12T04:21:19;100251.97;;;13.35;100.00
12868;BME280;33517;49.866;8.320;2023-05-12T04:24:11;100250.06;;;13.29;100.00
12868;BME280;33517;49.866;8.320;2023-05-12T04:27:04;100252.06;;;13.27;100.00
12868;BME280;33517;49.866;8.320;2023-05-12T04:29:55;100258.19;;;13.27;100.00
12868;BME280;33517;49.866;8.320;2023-05-12T04:32:47;100256.59;;;13.33;100.00
12868;BME280;33517;49.866;8.320;2023-05-12T04:35:40;100269.19;;;13.31;100.00
12868;BME280;33517;49.866;8.320;2023-05-12T04:38:32;100266.81;;;13.36;100.00
12868;BME280;33517;49.866;8.320;2023-05-12T04:41:24;100271.97;;;13.44;100.00
12868;BME280;33517;49.866;8.320;2023-05-12T04:44:16;100268.97;;;13.47;100.00
12868;BME280;33517;49.866;8.320;2023-05-12T04:47:08;100269.59;;;13.49;100.00
12868;BME280;33517;49.866;8.320;2023-05-12T04:49:59;100266.56;;;13.52;100.00
12868;BME280;33517;49.866;8.320;2023-05-12T04:52:53;100264.81;;;13.59;100.00
12868;BME280;33517;49.866;8.320;2023-05-12T04:55:45;100267.47;;;13.59;100.00
12868;BME280;33517;49.866;8.320;2023-05-12T04:58:37;100264.69;;;13.67;100.00
12868;BME280;33517;49.866;8.320;2023-05-12T05:01:29;100268.59;;;13.71;100.00
12868;BME280;33517;49.866;8.320;2023-05-12T05:04:21;100273.69;;;13.72;100.00
12868;BME280;33517;49.866;8.320;2023-05-12T05:07:12;100287.56;;;13.74;100.00
12868;BME280;33517;49.866;8.320;2023-05-12T05:10:07;100276.03;;;13.82;100.00
12868;BME280;33517;49.866;8.320;2023-05-12T05:12:59;100282.22;;;13.89;100.00
12868;BME280;33517;49.866;8.320;2023-05-12T05:15:51;100286.13;;;13.93;100.00
12868;BME280;33517;49.866;8.320;2023-05-12T05:18:43;100279.06;;;14.00;100.00
12868;BME280;33517;49.866;8.320;2023-05-12T05:21:36;100287.09;;;14.13;100.00
12868;BME280;33517;49.866;8.320;2023-05-12T05:24:27;100289.19;;;14.18;100.00
12868;BME280;33517;49.866;8.320;2023-05-12T05:27:21;100290.59;;;14.14;100.00
12868;BME280;33517;49.866;8.320;2023-05-12T05:30:13;100295.88;;;14.14;100.00
12868;BME280;33517;49.866;8.320;2023-05-12T05:33:04;100293.59;;;14.11;100.00
12868;BME280;33517;49.866;8.320;2023-05-12T05:35:56;100296.44;;;14.09;100.00
12868;BME280;33517;49.866;8.320;2023-05-12T05:38:49;100293.41;;;14.12;100.00
12868;BME280;33517;49.866;8.320;2023-05-12T05:41:40;100294.22;;;14.13;100.00
12868;BME280;33517;49.866;8.320;2023-05-12T05:44:34;100301.19;;;14.20;100.00
12868;BME280;33517;49.866;8.320;2023-05-12T05:47:26;100302.25;;;14.26;99.38
12868;BME280;33517;49.866;8.320;2023-05-12T05:50:18;100297.06;;;14.32;99.90
12868;BME280;33517;49.866;8.320;2023-05-12T05:53:10;100304.03;;;14.40;99.16
12868;BME280;33517;49.866;8.320;2023-05-12T05:56:02;100303.09;;;14.47;99.67
12868;BME280;33517;49.866;8.320;2023-05-12T05:58:54;100317.53;;;14.45;98.95
12868;BME280;33517;49.866;8.320;2023-05-12T06:01:47;100316.53;;;14.46;99.92
12868;BME280;33517;49.866;8.320;2023-05-12T06:04:39;100316.81;;;14.57;99.95
12868;BME280;33517;49.866;8.320;2023-05-12T06:07:31;100322.34;;;14.62;99.47
12868;BME280;33517;49.866;8.320;2023-05-12T06:10:23;100315.69;;;14.73;99.00
12868;BME280;33517;49.866;8.320;2023-05-12T06:13:15;100320.59;;;14.76;98.80
12868;BME280;33517;49.866;8.320;2023-05-12T06:16:07;100331.34;;;14.68;99.12
12868;BME280;33517;49.866;8.320;2023-05-12T06:19:00;100335.63;;;14.69;98.80
12868;BME280;33517;49.866;8.320;2023-05-12T06:21:52;100329.50;;;14.68;98.62
12868;BME280;33517;49.866;8.320;2023-05-12T06:24:44;100339.53;;;14.73;99.14
12868;BME280;33517;49.866;8.320;2023-05-12T06:27:36;100339.78;;;14.78;99.22
12868;BME280;33517;49.866;8.320;2023-05-12T06:30:27;100341.66;;;14.84;99.16
12868;BME280;33517;49.866;8.320;2023-05-12T06:33:19;100341.69;;;14.91;98.82
12868;BME280;33517;49.866;8.320;2023-05-12T06:36:12;100340.72;;;14.98;98.51
12868;BME280;33517;49.866;8.320;2023-05-12T06:39:04;100340.72;;;14.98;98.16
12868;BME280;33517;49.866;8.320;2023-05-12T06:41:56;100345.91;;;15.13;97.49
12868;BME280;33517;49.866;8.320;2023-05-12T06:44:48;100342.09;;;15.28;97.53
12868;BME280;33517;49.866;8.320;2023-05-12T06:47:41;100357.44;;;15.39;95.96
12868;BME280;33517;49.866;8.320;2023-05-12T06:50:33;100351.59;;;15.50;94.91
12868;BME280;33517;49.866;8.320;2023-05-12T06:53:26;100352.63;;;15.56;94.43
12868;BME280;33517;49.866;8.320;2023-05-12T06:56:18;100356.28;;;15.42;94.38
12868;BME280;33517;49.866;8.320;2023-05-12T06:59:11;100357.38;;;15.26;94.34
12868;BME280;33517;49.866;8.320;2023-05-12T07:02:03;100365.19;;;15.00;94.51
12868;BME280;33517;49.866;8.320;2023-05-12T07:04:54;100369.59;;;14.87;95.04
12868;BME280;33517;49.866;8.320;2023-05-12T07:07:46;100367.91;;;14.79;95.67
12868;BME280;33517;49.866;8.320;2023-05-12T07:10:39;100368.25;;;14.69;96.02
12868;BME280;33517;49.866;8.320;2023-05-12T07:13:31;100369.66;;;14.65;96.19
12868;BME280;33517;49.866;8.320;2023-05-12T07:16:23;100369.00;;;14.63;95.86
12868;BME280;33517;49.866;8.320;2023-05-12T07:19:15;100366.66;;;14.75;95.65
12868;BME280;33517;49.866;8.320;2023-05-12T07:22:07;100367.94;;;14.86;95.84
12868;BME280;33517;49.866;8.320;2023-05-12T07:24:59;100377.16;;;14.90;95.37
12868;BME280;33517;49.866;8.320;2023-05-12T07:27:52;100370.44;;;14.94;95.68
12868;BME280;33517;49.866;8.320;2023-05-12T07:30:44;100368.28;;;15.04;95.28
12868;BME280;33517;49.866;8.320;2023-05-12T07:33:36;100369.69;;;15.00;95.45
12868;BME280;33517;49.866;8.320;2023-05-12T07:36:28;100372.66;;;14.90;95.02
12868;BME280;33517;49.866;8.320;2023-05-12T07:39:20;100374.91;;;14.93;95.38
12868;BME280;33517;49.866;8.320;2023-05-12T07:42:13;100364.56;;;14.98;95.51
12868;BME280;33517;49.866;8.320;2023-05-12T07:45:07;100372.81;;;15.16;95.34
12868;BME280;33517;49.866;8.320;2023-05-12T07:47:59;100374.56;;;15.37;94.74
12868;BME280;33517;49.866;8.320;2023-05-12T07:50:50;100367.72;;;15.49;94.23
12868;BME280;33517;49.866;8.320;2023-05-12T07:53:42;100369.16;;;15.58;94.37
12868;BME280;33517;49.866;8.320;2023-05-12T07:56:34;100370.00;;;15.58;93.96
12868;BME280;33517;49.866;8.320;2023-05-12T07:59:26;100374.09;;;15.61;93.88
12868;BME280;33517;49.866;8.320;2023-05-12T08:02:19;100381.47;;;15.72;93.60
12868;BME280;33517;49.866;8.320;2023-05-12T08:05:11;100381.69;;;15.77;93.37
12868;BME280;33517;49.866;8.320;2023-05-12T08:08:03;100382.56;;;15.91;92.47
12868;BME280;33517;49.866;8.320;2023-05-12T08:10:55;100382.81;;;16.09;91.91
12868;BME280;33517;49.866;8.320;2023-05-12T08:13:47;100381.78;;;16.10;91.36
12868;BME280;33517;49.866;8.320;2023-05-12T08:16:39;100389.06;;;15.82;91.86
12868;BME280;33517;49.866;8.320;2023-05-12T08:19:33;100388.31;;;15.47;91.31
12868;BME280;33517;49.866;8.320;2023-05-12T08:22:25;100384.75;;;15.33;92.04
12868;BME280;33517;49.866;8.320;2023-05-12T08:25:17;100386.19;;;15.36;91.93
12868;BME280;33517;49.866;8.320;2023-05-12T08:28:09;100382.06;;;15.27;91.97
12868;BME280;33517;49.866;8.320;2023-05-12T08:31:02;100381.72;;;15.36;92.19
12868;BME280;33517;49.866;8.320;2023-05-12T08:33:54;100388.94;;;15.49;91.82
12868;BME280;33517;49.866;8.320;2023-05-12T08:36:47;100390.19;;;15.53;91.57
12868;BME280;33517;49.866;8.320;2023-05-12T08:39:39;100391.53;;;15.90;91.01
12868;BME280;33517;49.866;8.320;2023-05-12T08:42:36;100397.13;;;16.14;91.06
12868;BME280;33517;49.866;8.320;2023-05-12T08:45:31;100400.59;;;16.21;90.31
12868;BME280;33517;49.866;8.320;2023-05-12T08:48:25;100395.91;;;16.23;89.81
12868;BME280;33517;49.866;8.320;2023-05-12T08:51:18;100400.00;;;16.39;90.10
12868;BME280;33517;49.866;8.320;2023-05-12T08:54:12;100396.19;;;16.61;88.89
12868;BME280;33517;49.866;8.320;2023-05-12T08:57:04;100397.56;;;16.44;89.02
12868;BME280;33517;49.866;8.320;2023-05-12T08:59:57;100401.28;;;16.49;88.39
12868;BME280;33517;49.866;8.320;2023-05-12T09:02:50;100400.06;;;16.72;88.00
12868;BME280;33517;49.866;8.320;2023-05-12T09:05:42;100385.50;;;17.20;86.98
12868;BME280;33517;49.866;8.320;2023-05-12T09:08:35;100390.16;;;17.37;86.23
12868;BME280;33517;49.866;8.320;2023-05-12T09:11:30;100390.50;;;17.61;85.70
12868;BME280;33517;49.866;8.320;2023-05-12T09:14:23;100392.88;;;17.82;85.57
12868;BME280;33517;49.866;8.320;2023-05-12T09:17:15;100388.25;;;18.02;84.69
12868;BME280;33517;49.866;8.320;2023-05-12T09:20:08;100397.34;;;18.25;83.79
12868;BME280;33517;49.866;8.320;2023-05-12T09:23:14;100380.84;;;18.91;81.84
12868;BME280;33517;49.866;8.320;2023-05-12T09:26:06;100381.44;;;19.83;79.33
12868;BME280;33517;49.866;8.320;2023-05-12T09:29:05;100389.22;;;20.44;76.65
12868;BME280;33517;49.866;8.320;2023-05-12T09:31:59;100390.56;;;21.23;72.95
12868;BME280;33517;49.866;8.320;2023-05-12T09:34:51;100382.31;;;21.24;72.06
12868;BME280;33517;49.866;8.320;2023-05-12T09:37:45;100391.38;;;21.12;70.16
12868;BME280;33517;49.866;8.320;2023-05-12T09:40:37;100383.81;;;20.97;68.01
12868;BME280;33517;49.866;8.320;2023-05-12T09:43:30;100394.28;;;20.98;67.60
12868;BME280;33517;49.866;8.320;2023-05-12T09:46:24;100383.78;;;20.62;68.85
12868;BME280;33517;49.866;8.320;2023-05-12T09:49:19;100398.41;;;20.48;67.48
12868;BME280;33517;49.866;8.320;2023-05-12T09:52:11;100395.78;;;20.18;69.01
12868;BME280;33517;49.866;8.320;2023-05-12T09:55:06;100391.31;;;19.83;68.73
12868;BME280;33517;49.866;8.320;2023-05-12T09:57:59;100388.31;;;19.43;69.52
12868;BME280;33517;49.866;8.320;2023-05-12T10:00:51;100393.50;;;18.95;71.08
12868;BME280;33517;49.866;8.320;2023-05-12T10:03:47;100389.28;;;18.63;72.09
12868;BME280;33517;49.866;8.320;2023-05-12T10:06:40;100385.53;;;18.46;72.62
12868;BME280;33517;49.866;8.320;2023-05-12T10:09:33;100382.72;;;18.34;71.57
12868;BME280;33517;49.866;8.320;2023-05-12T10:12:28;100373.94;;;18.59;71.79
12868;BME280;33517;49.866;8.320;2023-05-12T10:15:21;100372.13;;;19.20;70.77
12868;BME280;33517;49.866;8.320;2023-05-12T10:18:15;100371.63;;;20.25;68.78
12868;BME280;33517;49.866;8.320;2023-05-12T10:21:09;100377.47;;;21.49;65.29
12868;BME280;33517;49.866;8.320;2023-05-12T10:24:02;100365.72;;;22.51;58.83
12868;BME280;33517;49.866;8.320;2023-05-12T10:26:54;100376.19;;;23.84;57.38
12868;BME280;33517;49.866;8.320;2023-05-12T10:29:47;100379.09;;;24.31;54.83
12868;BME280;33517;49.866;8.320;2023-05-12T10:32:39;100378.75;;;22.59;57.23
12868;BME280;33517;49.866;8.320;2023-05-12T10:35:32;100384.63;;;21.09;57.86
12868;BME280;33517;49.866;8.320;2023-05-12T10:38:25;100383.50;;;19.99;60.55
12868;BME280;33517;49.866;8.320;2023-05-12T10:41:28;100375.25;;;19.35;63.66
12868;BME280;33517;49.866;8.320;2023-05-12T10:44:25;100382.03;;;19.31;63.89
12868;BME280;33517;49.866;8.320;2023-05-12T10:47:17;100376.44;;;19.21;64.83
12868;BME280;33517;49.866;8.320;2023-05-12T10:50:10;100378.41;;;19.07;65.61
12868;BME280;33517;49.866;8.320;2023-05-12T10:53:03;100378.59;;;18.88;65.67
12868;BME280;33517;49.866;8.320;2023-05-12T10:55:56;100375.00;;;18.76;67.53
12868;BME280;33517;49.866;8.320;2023-05-12T10:59:06;100373.78;;;18.54;68.50
12868;BME280;33517;49.866;8.320;2023-05-12T11:01:59;100377.97;;;18.68;68.98
12868;BME280;33517;49.866;8.320;2023-05-12T11:04:55;100373.59;;;18.98;68.71
12868;BME280;33517;49.866;8.320;2023-05-12T11:07:48;100378.97;;;19.34;68.66
12868;BME280;33517;49.866;8.320;2023-05-12T11:10:40;100377.59;;;19.79;67.76
12868;BME280;33517;49.866;8.320;2023-05-12T11:13:34;100382.81;;;20.34;67.15
12868;BME280;33517;49.866;8.320;2023-05-12T11:16:26;100379.50;;;20.84;65.37
12868;BME280;33517;49.866;8.320;2023-05-12T11:19:18;100377.91;;;22.26;63.80
12868;BME280;33517;49.866;8.320;2023-05-12T11:22:11;100386.09;;;22.19;58.86
12868;BME280;33517;49.866;8.320;2023-05-12T11:25:09;100389.22;;;21.99;59.44
12868;BME280;33517;49.866;8.320;2023-05-12T11:28:02;100388.91;;;21.45;60.61
12868;BME280;33517;49.866;8.320;2023-05-12T11:30:55;100389.50;;;20.89;61.77
12868;BME280;33517;49.866;8.320;2023-05-12T11:33:47;100391.88;;;20.44;62.50
12868;BME280;33517;49.866;8.320;2023-05-12T11:36:40;100391.19;;;20.07;62.48
12868;BME280;33517;49.866;8.320;2023-05-12T11:39:32;100387.00;;;19.82;63.21
12868;BME280;33517;49.866;8.320;2023-05-12T11:42:24;100391.78;;;19.62;63.10
12868;BME280;33517;49.866;8.320;2023-05-12T11:45:20;100396.22;;;19.13;64.22
12868;BME280;33517;49.866;8.320;2023-05-12T11:48:14;100395.25;;;18.83;64.28
12868;BME280;33517;49.866;8.320;2023-05-12T11:51:06;100399.56;;;18.60;65.72
12868;BME280;33517;49.866;8.320;2023-05-12T11:53:58;100397.59;;;18.17;67.31
12868;BME280;33517;49.866;8.320;2023-05-12T11:56:51;100391.81;;;17.89;67.83
12868;BME280;33517;49.866;8.320;2023-05-12T11:59:43;100399.44;;;17.79;68.57
12868;BME280;33517;49.866;8.320;2023-05-12T12:02:35;100395.72;;;17.80;69.49
12868;BME280;33517;49.866;8.320;2023-05-12T12:05:30;100405.16;;;17.76;70.13
12868;BME280;33517;49.866;8.320;2023-05-12T12:08:22;100409.88;;;17.74;70.66
12868;BME280;33517;49.866;8.320;2023-05-12T12:11:14;100417.84;;;17.81;70.78
12868;BME280;33517;49.866;8.320;2023-05-12T12:14:05;100416.63;;;17.77;70.38
12868;BME280;33517;49.866;8.320;2023-05-12T12:16:57;100414.19;;;17.75;71.19
12868;BME280;33517;49.866;8.320;2023-05-12T12:19:49;100415.47;;;17.66;70.61
12868;BME280;33517;49.866;8.320;2023-05-12T12:22:42;100416.97;;;17.49;71.62
12868;BME280;33517;49.866;8.320;2023-05-12T12:25:34;100419.19;;;17.39;72.23
12868;BME280;33517;49.866;8.320;2023-05-12T12:28:26;100412.81;;;17.66;72.03
12868;BME280;33517;49.866;8.320;2023-05-12T12:31:18;100414.59;;;17.72;72.36
12868;BME280;33517;49.866;8.320;2023-05-12T12:34:10;100424.00;;;17.75;72.68
12868;BME280;33517;49.866;8.320;2023-05-12T12:37:02;100429.38;;;17.62;73.56
12868;BME280;33517;49.866;8.320;2023-05-12T12:39:56;100423.03;;;17.63;73.01
12868;BME280;33517;49.866;8.320;2023-05-12T12:42:48;100426.72;;;17.62;72.66
12868;BME280;33517;49.866;8.320;2023-05-12T12:45:39;100420.34;;;17.76;72.94
12868;BME280;33517;49.866;8.320;2023-05-12T12:48:31;100423.47;;;18.04;71.87
12868;BME280;33517;49.866;8.320;2023-05-12T12:51:24;100424.09;;;18.37;71.37
12868;BME280;33517;49.866;8.320;2023-05-12T12:54:17;100430.03;;;18.70;71.08
12868;BME280;33517;49.866;8.320;2023-05-12T12:57:10;100425.28;;;18.97;70.50
12868;BME280;33517;49.866;8.320;2023-05-12T13:00:02;100425.56;;;19.13;70.15
12868;BME280;33517;49.866;8.320;2023-05-12T13:02:55;100430.63;;;18.97;69.67
12868;BME280;33517;49.866;8.320;2023-05-12T13:05:47;100431.59;;;18.78;70.60
12868;BME280;33517;49.866;8.320;2023-05-12T13:08:38;100434.81;;;18.62;70.87
12868;BME280;33517;49.866;8.320;2023-05-12T13:11:32;100438.03;;;18.39;71.71
12868;BME280;33517;49.866;8.320;2023-05-12T13:14:25;100441.66;;;18.13;72.29
12868;BME280;33517;49.866;8.320;2023-05-12T13:17:17;100436.94;;;18.09;72.25
12868;BME280;33517;49.866;8.320;2023-05-12T13:20:09;100434.69;;;18.12;72.11
12868;BME280;33517;49.866;8.320;2023-05-12T13:23:01;100430.63;;;18.10;72.80
12868;BME280;33517;49.866;8.320;2023-05-12T13:25:53;100435.56;;;18.06;72.70
12868;BME280;33517;49.866;8.320;2023-05-12T13:28:45;100434.16;;;17.97;73.79
12868;BME280;33517;49.866;8.320;2023-05-12T13:31:38;100436.81;;;17.97;73.81
12868;BME280;33517;49.866;8.320;2023-05-12T13:34:30;100433.53;;;17.95;74.45
12868;BME280;33517;49.866;8.320;2023-05-12T13:37:22;100438.69;;;17.90;75.02
12868;BME280;33517;49.866;8.320;2023-05-12T13:40:14;100442.59;;;17.88;75.44
12868;BME280;33517;49.866;8.320;2023-05-12T13:43:06;100436.81;;;17.97;74.90
12868;BME280;33517;49.866;8.320;2023-05-12T13:45:58;100441.56;;;17.89;75.83
12868;BME280;33517;49.866;8.320;2023-05-12T13:48:51;100448.13;;;17.86;76.17
12868;BME280;33517;49.866;8.320;2023-05-12T13:51:43;100444.91;;;18.15;76.26
12868;BME280;33517;49.866;8.320;2023-05-12T13:54:35;100442.09;;;18.48;75.65
12868;BME280;33517;49.866;8.320;2023-05-12T13:57:26;100433.88;;;18.74;74.61
12868;BME280;33517;49.866;8.320;2023-05-12T14:00:19;100443.63;;;19.11;73.84
12868;BME280;33517;49.866;8.320;2023-05-12T14:03:11;100431.03;;;19.18;72.24
12868;BME280;33517;49.866;8.320;2023-05-12T14:06:04;100435.31;;;19.44;71.71
12868;BME280;33517;49.866;8.320;2023-05-12T14:08:56;100444.44;;;19.55;70.19
12868;BME280;33517;49.866;8.320;2023-05-12T14:11:48;100437.47;;;19.54;68.64
12868;BME280;33517;49.866;8.320;2023-05-12T14:14:40;100441.53;;;19.74;68.32
12868;BME280;33517;49.866;8.320;2023-05-12T14:17:36;100440.72;;;19.92;65.79
12868;BME280;33517;49.866;8.320;2023-05-12T14:20:28;100442.56;;;20.09;66.44
12868;BME280;33517;49.866;8.320;2023-05-12T14:23:21;100440.44;;;20.30;65.27
12868;BME280;33517;49.866;8.320;2023-05-12T14:26:13;100448.72;;;20.40;64.09
12868;BME280;33517;49.866;8.320;2023-05-12T14:29:05;100447.97;;;20.33;64.52
12868;BME280;33517;49.866;8.320;2023-05-12T14:31:57;100444.56;;;19.96;65.15
12868;BME280;33517;49.866;8.320;2023-05-12T14:34:49;100446.50;;;19.53;63.63
12868;BME280;33517;49.866;8.320;2023-05-12T14:37:41;100451.03;;;19.09;65.54
12868;BME280;33517;49.866;8.320;2023-05-12T14:40:34;100447.72;;;18.89;66.48
12868;BME280;33517;49.866;8.320;2023-05-12T14:43:26;100453.00;;;18.71;66.68
12868;BME280;33517;49.866;8.320;2023-05-12T14:46:18;100454.84;;;18.71;67.55
12868;BME280;33517;49.866;8.320;2023-05-12T14:49:09;100454.41;;;18.74;67.55
12868;BME280;33517;49.866;8.320;2023-05-12T14:52:03;100451.06;;;18.85;68.01
12868;BME280;33517;49.866;8.320;2023-05-12T14:54:56;100455.22;;;18.99;68.16
12868;BME280;33517;49.866;8.320;2023-05-12T14:57:49;100455.00;;;19.25;67.82
12868;BME280;33517;49.866;8.320;2023-05-12T15:00:41;100456.50;;;19.39;67.85